Springfield, Maine
Current Conditions -  °F | °C
As of 11:53 AM on Sunday 23 Nov 2014 (Local Time) from KMLT Reporting Station
Overcast Overcast  
Wind Chill: 43°   Ceiling: 2900
Heat Index: 43°   Visibility: 10mi
Dew Point: 32°   Wind: 0mph
Humidity: 65%   Direction: NA
Pressure: 30.05"   Gusts: NA
Location:  45.4°N, 68.13°W
Report Text: KMLT 231653Z AUTO 00000KT 10SM OVC029 06/00 A3005 RMK AO2 SLP184 T00610000
Loading
Personal Weather Stations






























Interactive Weather Map New forecast layout! Learn more

10-Day Weather Forecast

Advertisements
Track Severe Weather on mobile